createdAt,value
2019-05-18T00:02:23.766Z,3.10
2019-05-18T00:04:56.201Z,2.73
2019-05-18T00:07:28.589Z,2.87
2019-05-18T00:10:01.017Z,3.20
2019-05-18T00:12:33.805Z,2.87
2019-05-18T00:15:06.350Z,3.40
2019-05-18T00:17:38.771Z,3.13
2019-05-18T00:20:11.908Z,3.83
2019-05-18T00:22:44.423Z,3.30
2019-05-18T00:25:16.856Z,4.10
2019-05-18T00:27:49.330Z,3.30
2019-05-18T00:30:21.758Z,3.47
2019-05-18T00:32:54.232Z,3.00
2019-05-18T00:35:26.651Z,2.77
2019-05-18T00:37:59.047Z,2.53
2019-05-18T00:40:31.478Z,3.00
2019-05-18T00:43:03.887Z,2.93
2019-05-18T00:45:36.307Z,3.37
2019-05-18T00:48:08.722Z,3.20
2019-05-18T00:50:41.137Z,3.50
2019-05-18T00:53:13.532Z,3.50
2019-05-18T00:55:45.963Z,3.10
2019-05-18T00:58:18.357Z,3.77
2019-05-18T01:00:50.803Z,3.33
2019-05-18T01:03:23.199Z,3.90
2019-05-18T01:05:55.731Z,3.20
2019-05-18T01:08:28.125Z,3.20
2019-05-18T01:11:00.544Z,5.63
2019-05-18T01:13:32.956Z,4.20
2019-05-18T01:16:05.458Z,3.60
2019-05-18T01:18:37.842Z,3.47
2019-05-18T01:21:10.311Z,4.13
2019-05-18T01:23:42.710Z,3.33
2019-05-18T01:26:15.252Z,5.33
2019-05-18T01:28:47.682Z,3.33
2019-05-18T01:31:20.113Z,3.40
2019-05-18T01:33:52.503Z,3.00
2019-05-18T01:36:24.941Z,3.27
2019-05-18T01:38:57.339Z,3.20
2019-05-18T01:41:29.772Z,3.13
2019-05-18T01:44:02.208Z,3.37
2019-05-18T01:46:34.861Z,3.40
2019-05-18T01:49:07.255Z,3.40
2019-05-18T01:51:39.687Z,3.13
2019-05-18T01:54:12.081Z,3.17
2019-05-18T01:56:44.506Z,3.00
2019-05-18T01:59:16.907Z,3.40
2019-05-18T02:01:49.334Z,3.40
2019-05-18T02:04:22.816Z,3.20
2019-05-18T02:06:55.356Z,3.10
2019-05-18T02:09:27.760Z,4.47
2019-05-18T02:12:00.316Z,3.93
2019-05-18T02:14:33.803Z,3.10
2019-05-18T02:17:06.326Z,3.57
2019-05-18T02:19:38.717Z,3.10
2019-05-18T02:22:11.138Z,3.20
2019-05-18T02:24:43.542Z,3.00
2019-05-18T02:27:15.966Z,3.10
2019-05-18T02:29:48.362Z,3.30
2019-05-18T02:32:20.790Z,3.30
2019-05-18T02:34:54.256Z,2.97
2019-05-18T02:37:26.683Z,2.97
2019-05-18T02:39:59.097Z,3.03
2019-05-18T02:42:31.515Z,2.70
2019-05-18T02:45:03.995Z,2.70
2019-05-18T02:47:36.411Z,3.23
2019-05-18T02:50:08.835Z,3.10
2019-05-18T02:52:41.248Z,3.17
2019-05-18T02:55:13.650Z,2.90
2019-05-18T02:57:46.064Z,3.60
2019-05-18T03:00:18.470Z,2.83
2019-05-18T03:02:50.908Z,2.50
2019-05-18T03:05:23.306Z,2.97
2019-05-18T03:07:55.769Z,3.10
2019-05-18T03:10:28.174Z,3.10
2019-05-18T03:13:00.527Z,3.17
2019-05-18T03:15:33.012Z,3.20
2019-05-18T03:18:05.482Z,3.50
2019-05-18T03:20:37.844Z,3.47
2019-05-18T03:23:10.266Z,3.57
2019-05-18T03:25:42.941Z,3.90
2019-05-18T03:28:15.383Z,3.17
2019-05-18T03:30:47.782Z,3.37
2019-05-18T03:33:20.222Z,3.13
2019-05-18T03:35:52.624Z,3.37
2019-05-18T03:38:25.135Z,3.57
2019-05-18T03:40:57.531Z,3.03
2019-05-18T03:43:29.919Z,2.90
2019-05-18T03:46:02.370Z,2.93
2019-05-18T03:48:34.796Z,3.10
2019-05-18T03:51:07.851Z,3.73
2019-05-18T03:53:40.277Z,3.20
2019-05-18T03:56:12.689Z,3.70
2019-05-18T03:58:45.088Z,3.03
2019-05-18T04:01:17.576Z,3.17
2019-05-18T04:03:49.992Z,3.20
2019-05-18T04:06:22.533Z,2.87
2019-05-18T04:08:54.940Z,3.50
2019-05-18T04:11:27.357Z,3.30
2019-05-18T04:13:59.707Z,3.10
2019-05-18T04:16:32.149Z,3.37
2019-05-18T04:19:04.535Z,2.80
2019-05-18T04:21:36.957Z,3.30
2019-05-18T04:24:09.386Z,4.10
2019-05-18T04:26:41.812Z,2.87
2019-05-18T04:29:14.215Z,2.90
2019-05-18T04:31:46.648Z,3.40
2019-05-18T04:34:19.042Z,3.23
2019-05-18T04:36:51.467Z,4.47
2019-05-18T04:39:23.873Z,3.07
2019-05-18T04:41:56.303Z,2.93
2019-05-18T04:44:28.699Z,3.83
2019-05-18T04:47:01.122Z,3.80
2019-05-18T04:49:33.517Z,4.53
2019-05-18T04:52:05.955Z,3.93
2019-05-18T04:54:38.359Z,4.13
2019-05-18T04:57:10.785Z,3.87
2019-05-18T04:59:43.191Z,4.20
2019-05-18T05:02:15.616Z,3.63
2019-05-18T05:04:51.475Z,3.57
2019-05-18T05:07:22.131Z,6.43
2019-05-18T05:09:54.544Z,3.17
2019-05-18T05:12:27.032Z,4.10
2019-05-18T05:14:59.526Z,4.10
2019-05-18T05:17:31.963Z,3.80
2019-05-18T05:20:17.243Z,3.93
2019-05-18T05:22:38.514Z,3.60
2019-05-18T05:25:10.924Z,3.60
2019-05-18T05:27:43.342Z,4.43
2019-05-18T05:30:15.757Z,3.47
2019-05-18T05:32:48.176Z,3.83
2019-05-18T05:35:20.639Z,4.20
2019-05-18T05:37:53.104Z,4.30
2019-05-18T05:40:25.496Z,4.13
2019-05-18T05:42:57.916Z,3.03
2019-05-18T05:45:30.320Z,3.23
2019-05-18T05:48:02.751Z,3.60
2019-05-18T05:50:36.695Z,3.07
2019-05-18T05:53:09.288Z,4.23
2019-05-18T05:55:41.674Z,3.77
2019-05-18T05:58:14.180Z,3.87
2019-05-18T06:00:46.569Z,4.00
2019-05-18T06:03:18.989Z,3.87
2019-05-18T06:05:51.384Z,4.37
2019-05-18T06:08:23.841Z,4.00
2019-05-18T06:10:56.236Z,4.10
2019-05-18T06:13:28.651Z,7.63
2019-05-18T06:16:01.051Z,7.57
2019-05-18T06:18:33.614Z,4.47
2019-05-18T06:21:06.001Z,7.77
2019-05-18T06:23:38.450Z,4.93
2019-05-18T06:26:10.902Z,8.87
2019-05-18T06:28:43.319Z,4.77
2019-05-18T06:31:15.772Z,4.20
2019-05-18T06:33:48.199Z,4.20
2019-05-18T06:36:20.601Z,4.00
2019-05-18T06:38:53.046Z,4.00
2019-05-18T06:41:25.441Z,4.17
2019-05-18T06:43:58.492Z,4.07
2019-05-18T06:46:34.044Z,4.13
2019-05-18T06:49:06.471Z,5.77
2019-05-18T06:51:38.882Z,4.47
2019-05-18T06:54:11.307Z,5.00
2019-05-18T06:56:43.709Z,4.10
2019-05-18T06:59:16.898Z,4.03
2019-05-18T07:01:49.302Z,4.57
2019-05-18T07:04:22.688Z,4.47
2019-05-18T07:06:55.088Z,4.20
2019-05-18T07:09:27.525Z,4.50
2019-05-18T07:11:59.932Z,4.03
2019-05-18T07:14:32.351Z,4.10
2019-05-18T07:17:04.801Z,4.30
2019-05-18T07:19:37.215Z,4.07
2019-05-18T07:22:09.624Z,3.20
2019-05-18T07:24:43.113Z,3.60
2019-05-18T07:27:15.445Z,5.53
2019-05-18T07:29:47.863Z,4.40
2019-05-18T07:32:20.265Z,4.57
2019-05-18T07:34:52.699Z,4.83
2019-05-18T07:37:25.148Z,4.20
2019-05-18T07:39:57.620Z,6.40
2019-05-18T07:42:30.025Z,5.60
2019-05-18T07:45:02.554Z,5.53
2019-05-18T07:47:35.283Z,4.97
2019-05-18T07:50:08.106Z,4.33
2019-05-18T07:52:40.439Z,5.08
2019-05-18T07:55:12.856Z,4.57
2019-05-18T07:57:45.281Z,4.37
2019-05-18T08:00:17.717Z,5.20
2019-05-18T08:02:50.102Z,4.23
2019-05-18T08:05:22.530Z,7.33
2019-05-18T08:07:54.927Z,4.67
2019-05-18T08:10:45.660Z,5.23
2019-05-18T08:13:18.103Z,6.00
2019-05-18T08:15:50.521Z,8.07
2019-05-18T08:18:22.961Z,4.63
2019-05-18T08:20:55.374Z,7.47
2019-05-18T08:23:27.775Z,7.47
2019-05-18T08:26:00.184Z,5.47
2019-05-18T08:28:32.592Z,4.63
2019-05-18T08:31:05.014Z,4.77
2019-05-18T08:33:37.415Z,4.40
2019-05-18T08:36:09.855Z,4.87
2019-05-18T08:38:42.257Z,4.93
2019-05-18T08:41:14.682Z,3.77
2019-05-18T08:43:47.083Z,4.47
2019-05-18T08:46:19.601Z,4.23
2019-05-18T08:48:52.003Z,4.43
2019-05-18T08:51:24.424Z,4.00
2019-05-18T08:53:56.819Z,4.20
2019-05-18T08:56:29.259Z,3.93
2019-05-18T08:59:01.653Z,4.30
2019-05-18T09:01:34.177Z,3.90
2019-05-18T09:04:07.596Z,4.10
2019-05-18T09:06:40.035Z,4.00
2019-05-18T09:09:12.430Z,4.50
2019-05-18T09:11:44.851Z,3.27
2019-05-18T09:14:17.314Z,3.40
2019-05-18T09:16:49.767Z,3.60
2019-05-18T09:19:22.262Z,3.40
2019-05-18T09:21:54.690Z,3.20
2019-05-18T09:24:27.094Z,3.20
2019-05-18T09:26:59.550Z,5.57
2019-05-18T09:29:32.034Z,2.70
2019-05-18T09:32:04.490Z,3.20
2019-05-18T09:34:36.896Z,3.30
2019-05-18T09:37:09.317Z,3.00
2019-05-18T09:39:41.723Z,2.93
2019-05-18T09:42:14.150Z,3.00
2019-05-18T09:44:46.544Z,3.00
2019-05-18T09:47:18.977Z,3.00
2019-05-18T09:49:51.373Z,2.77
2019-05-18T09:52:43.277Z,3.17
2019-05-18T09:54:57.896Z,3.60
2019-05-18T09:57:30.320Z,3.03
2019-05-18T10:00:02.750Z,3.67
2019-05-18T10:02:35.245Z,3.63
2019-05-18T10:05:07.683Z,4.13
2019-05-18T10:07:40.289Z,4.50
2019-05-18T10:10:12.697Z,3.93
2019-05-18T10:12:45.193Z,3.67
2019-05-18T10:15:17.594Z,3.50
2019-05-18T10:17:50.035Z,4.00
2019-05-18T10:20:22.434Z,4.20
2019-05-18T10:23:11.405Z,4.90
2019-05-18T10:25:29.011Z,4.10
2019-05-18T10:28:01.447Z,4.20
2019-05-18T10:30:33.839Z,4.77
2019-05-18T10:33:06.271Z,4.63
2019-05-18T10:35:38.679Z,5.33
2019-05-18T10:38:11.184Z,5.50
2019-05-18T10:40:43.590Z,5.30
2019-05-18T10:43:16.022Z,5.00
2019-05-18T10:45:48.457Z,4.43
2019-05-18T10:48:20.886Z,4.67
2019-05-18T10:50:53.290Z,5.00
2019-05-18T10:53:28.642Z,5.70
2019-05-18T10:55:59.840Z,4.97
2019-05-18T10:58:32.357Z,4.93
2019-05-18T11:01:04.770Z,6.23
2019-05-18T11:03:37.200Z,5.43
2019-05-18T11:06:09.614Z,6.17
2019-05-18T11:08:42.041Z,5.67
2019-05-18T11:11:14.434Z,5.27
2019-05-18T11:13:46.881Z,6.23
2019-05-18T11:16:19.308Z,5.87
2019-05-18T11:18:51.748Z,6.27
2019-05-18T11:21:25.144Z,5.50
2019-05-18T11:23:57.591Z,6.33
2019-05-18T11:26:29.990Z,5.40
2019-05-18T11:29:02.417Z,5.80
2019-05-18T11:31:34.819Z,7.63
2019-05-18T11:34:07.255Z,5.60
2019-05-18T11:36:39.660Z,5.77
2019-05-18T11:39:12.081Z,5.33
2019-05-18T11:41:44.490Z,5.20
2019-05-18T11:44:16.904Z,5.90
2019-05-18T11:46:49.301Z,6.80
2019-05-18T11:49:21.827Z,5.67
2019-05-18T11:51:54.227Z,5.63
2019-05-18T11:54:26.642Z,5.87
2019-05-18T11:56:59.066Z,7.27
2019-05-18T11:59:31.495Z,7.57
2019-05-18T12:02:03.904Z,6.40
2019-05-18T12:04:36.328Z,6.60
2019-05-18T12:07:08.747Z,7.17
2019-05-18T12:09:41.168Z,9.87
2019-05-18T12:12:13.567Z,7.17
2019-05-18T12:14:45.991Z,7.20
2019-05-18T12:17:18.435Z,7.07
2019-05-18T12:19:50.817Z,7.57
2019-05-18T12:22:23.241Z,7.77
2019-05-18T12:24:55.665Z,8.73
2019-05-18T12:27:28.082Z,8.23
2019-05-18T12:30:00.450Z,8.27
2019-05-18T12:32:32.846Z,8.97
2019-05-18T12:35:05.612Z,9.17
2019-05-18T12:37:38.012Z,9.83
2019-05-18T12:40:10.470Z,10.43
2019-05-18T12:42:42.930Z,8.63
2019-05-18T12:45:15.348Z,8.20
2019-05-18T12:47:47.743Z,9.70
2019-05-18T12:50:20.182Z,9.67
2019-05-18T12:52:52.581Z,9.93
2019-05-18T12:55:25.008Z,10.17
2019-05-18T12:57:57.430Z,10.63
2019-05-18T13:00:29.860Z,9.70
2019-05-18T13:03:02.297Z,10.30
2019-05-18T13:05:34.745Z,9.67
2019-05-18T13:08:07.135Z,9.07
2019-05-18T13:10:39.886Z,10.03
2019-05-18T13:13:12.307Z,11.27
2019-05-18T13:15:44.765Z,11.07
2019-05-18T13:18:17.240Z,12.20
2019-05-18T13:20:49.642Z,11.47
2019-05-18T13:23:22.075Z,13.13
2019-05-18T13:25:54.505Z,12.10
2019-05-18T13:28:26.921Z,11.30
2019-05-18T13:30:59.349Z,10.33
2019-05-18T13:33:31.785Z,10.53
2019-05-18T13:36:04.194Z,10.13
2019-05-18T13:38:36.614Z,10.47
2019-05-18T13:41:09.027Z,10.67
2019-05-18T13:43:41.469Z,10.27
2019-05-18T13:46:13.915Z,10.97
2019-05-18T13:48:46.417Z,10.73
2019-05-18T13:51:18.818Z,10.70
2019-05-18T13:53:51.259Z,9.10
2019-05-18T13:56:23.656Z,9.13
2019-05-18T13:58:56.076Z,8.37
2019-05-18T14:01:28.788Z,9.13
2019-05-18T14:04:02.463Z,7.83
2019-05-18T14:06:34.951Z,8.60
2019-05-18T14:09:07.420Z,8.63
2019-05-18T14:11:40.065Z,9.43
2019-05-18T14:14:13.289Z,9.00
2019-05-18T14:16:46.933Z,9.30
2019-05-18T14:19:19.351Z,9.43
2019-05-18T14:21:52.635Z,9.13
2019-05-18T14:24:25.209Z,9.63
2019-05-18T14:26:57.847Z,10.20
2019-05-18T14:29:30.276Z,9.20
2019-05-18T14:32:03.554Z,9.03
2019-05-18T14:34:36.179Z,8.87
2019-05-18T14:37:08.639Z,8.93
2019-05-18T14:39:41.293Z,8.50
2019-05-18T14:42:13.789Z,7.70
2019-05-18T14:44:46.437Z,6.73
2019-05-18T14:47:18.975Z,6.73
2019-05-18T14:49:51.819Z,6.77
2019-05-18T14:52:25.294Z,6.60
2019-05-18T14:54:57.720Z,6.93
2019-05-18T14:57:30.114Z,6.90
2019-05-18T15:00:02.784Z,6.57
2019-05-18T15:02:36.416Z,7.17
2019-05-18T15:05:09.075Z,7.10
2019-05-18T15:07:42.445Z,7.00
2019-05-18T15:10:14.866Z,6.00
2019-05-18T15:12:47.351Z,5.73
2019-05-18T15:15:19.775Z,5.77
2019-05-18T15:17:52.338Z,6.10
2019-05-18T15:20:25.140Z,5.63
2019-05-18T15:22:57.650Z,5.43
2019-05-18T15:25:30.094Z,5.67
2019-05-18T15:28:02.495Z,5.00
2019-05-18T15:30:34.913Z,5.20
2019-05-18T15:33:07.327Z,4.23
2019-05-18T15:35:39.742Z,4.60
2019-05-18T15:38:12.148Z,4.23
2019-05-18T15:40:44.696Z,4.20
2019-05-18T15:43:17.231Z,4.33
2019-05-18T15:45:49.646Z,4.63
2019-05-18T15:48:22.065Z,4.53
2019-05-18T15:50:54.473Z,4.50
2019-05-18T15:53:27.926Z,4.93
2019-05-18T15:56:05.634Z,6.03
2019-05-18T15:58:34.521Z,4.50
2019-05-18T16:01:07.063Z,3.67
2019-05-18T16:03:39.624Z,3.90
2019-05-18T16:06:12.053Z,3.57
2019-05-18T16:08:44.539Z,3.87
2019-05-18T16:11:18.436Z,4.20
2019-05-18T16:13:50.846Z,4.20
2019-05-18T16:16:23.298Z,3.87
2019-05-18T16:18:55.689Z,5.70
2019-05-18T16:21:28.123Z,4.10
2019-05-18T16:24:00.629Z,4.23
2019-05-18T16:26:33.096Z,3.73
2019-05-18T16:29:05.591Z,4.00
2019-05-18T16:31:38.012Z,3.90
2019-05-18T16:34:10.337Z,3.50
2019-05-18T16:36:42.835Z,3.47
2019-05-18T16:39:15.238Z,4.37
2019-05-18T16:41:47.659Z,3.40
2019-05-18T16:44:20.058Z,4.00
2019-05-18T16:46:53.549Z,3.63
2019-05-18T16:49:25.990Z,3.33
2019-05-18T16:51:58.403Z,3.80
2019-05-18T16:54:30.810Z,4.10
2019-05-18T16:57:03.322Z,7.53
2019-05-18T16:59:35.793Z,7.70
2019-05-18T17:02:09.809Z,6.10
2019-05-18T17:04:42.871Z,3.77
2019-05-18T17:07:15.295Z,3.90
2019-05-18T17:09:47.772Z,3.60
2019-05-18T17:12:20.236Z,3.77
2019-05-18T17:14:52.666Z,3.90
2019-05-18T17:17:25.213Z,3.30
2019-05-18T17:19:58.710Z,3.30
2019-05-18T17:22:31.140Z,3.13
2019-05-18T17:25:03.598Z,2.97
2019-05-18T17:27:36.092Z,3.50
2019-05-18T17:30:08.787Z,4.77
2019-05-18T17:32:41.191Z,3.43
2019-05-18T17:35:13.728Z,2.73
2019-05-18T17:37:46.138Z,2.97
2019-05-18T17:40:18.772Z,3.00
2019-05-18T17:42:51.178Z,2.77
2019-05-18T17:45:23.694Z,2.77
2019-05-18T17:47:56.152Z,2.57
2019-05-18T17:50:28.836Z,2.60
2019-05-18T17:53:01.272Z,2.93
2019-05-18T17:55:33.711Z,2.70
2019-05-18T17:58:06.216Z,2.77
2019-05-18T18:00:38.734Z,3.90
2019-05-18T18:03:11.262Z,3.63
2019-05-18T18:05:43.707Z,3.13
2019-05-18T18:08:16.205Z,2.80
2019-05-18T18:10:48.648Z,4.57
2019-05-18T18:13:21.069Z,2.50
2019-05-18T18:15:53.487Z,3.40
2019-05-18T18:18:26.979Z,2.80
2019-05-18T18:20:59.565Z,2.67
2019-05-18T18:23:32.095Z,2.77
2019-05-18T18:26:04.590Z,3.43
2019-05-18T18:28:37.003Z,2.10
2019-05-18T18:31:09.655Z,3.13
2019-05-18T18:33:42.049Z,1.83
2019-05-18T18:36:14.473Z,2.20
2019-05-18T18:38:46.959Z,2.03
2019-05-18T18:41:19.740Z,2.00
2019-05-18T18:43:52.205Z,2.57
2019-05-18T18:46:25.707Z,1.83
2019-05-18T18:48:58.104Z,2.13
2019-05-18T18:51:30.578Z,1.83
2019-05-18T18:54:03.015Z,2.10
2019-05-18T18:56:35.532Z,1.90
2019-05-18T18:59:07.929Z,2.30
2019-05-18T19:01:40.422Z,2.10
2019-05-18T19:04:12.822Z,3.00
2019-05-18T19:06:45.243Z,2.33
2019-05-18T19:09:17.580Z,2.10
2019-05-18T19:11:50.039Z,2.13
2019-05-18T19:14:22.436Z,2.40
2019-05-18T19:16:54.870Z,2.77
2019-05-18T19:19:27.272Z,2.53
2019-05-18T19:21:59.718Z,3.03
2019-05-18T19:24:32.115Z,3.93
2019-05-18T19:27:04.638Z,2.80
2019-05-18T19:29:37.013Z,3.50
2019-05-18T19:32:09.434Z,2.83
2019-05-18T19:34:41.842Z,14.03
2019-05-18T19:37:14.265Z,2.60
2019-05-18T19:39:46.731Z,2.20
2019-05-18T19:42:19.259Z,2.47
2019-05-18T19:44:51.713Z,2.80
2019-05-18T19:47:24.137Z,2.73
2019-05-18T19:49:56.534Z,2.60
2019-05-18T19:52:28.966Z,2.50
2019-05-18T19:55:01.354Z,4.40
2019-05-18T19:57:33.777Z,3.30
2019-05-18T20:00:06.410Z,2.80
2019-05-18T20:02:39.895Z,2.47
2019-05-18T20:05:12.627Z,2.60
2019-05-18T20:07:45.110Z,3.20
2019-05-18T20:10:17.656Z,1.50
2019-05-18T20:12:50.165Z,1.80
2019-05-18T20:15:22.596Z,1.77
2019-05-18T20:17:55.032Z,1.87
2019-05-18T20:20:27.424Z,2.00
2019-05-18T20:22:59.820Z,2.00
2019-05-18T20:25:32.248Z,1.83
2019-05-18T20:28:04.655Z,3.27
2019-05-18T20:30:37.090Z,2.10
2019-05-18T20:33:09.557Z,2.20
2019-05-18T20:35:43.057Z,3.23
2019-05-18T20:38:16.527Z,2.30
2019-05-18T20:40:48.941Z,2.60
2019-05-18T20:43:21.375Z,2.60
2019-05-18T20:45:53.900Z,2.43
2019-05-18T20:48:26.299Z,3.03
2019-05-18T20:50:58.735Z,2.50
2019-05-18T20:53:31.139Z,3.40
2019-05-18T20:56:03.624Z,2.03
2019-05-18T20:58:40.295Z,2.53
2019-05-18T21:01:10.363Z,2.40
2019-05-18T21:03:42.790Z,2.60
2019-05-18T21:06:15.204Z,2.37
2019-05-18T21:08:47.603Z,2.60
2019-05-18T21:11:20.030Z,3.27
2019-05-18T21:13:52.427Z,2.53
2019-05-18T21:16:25.935Z,4.10
2019-05-18T21:18:58.354Z,2.60
2019-05-18T21:21:30.842Z,2.50
2019-05-18T21:24:03.255Z,3.30
2019-05-18T21:26:35.763Z,3.23
2019-05-18T21:29:08.166Z,2.40
2019-05-18T21:31:40.537Z,2.47
2019-05-18T21:34:12.965Z,2.03
2019-05-18T21:36:45.363Z,4.80
2019-05-18T21:39:17.841Z,2.60
2019-05-18T21:41:50.259Z,1.93
2019-05-18T21:44:22.650Z,2.00
2019-05-18T21:46:55.111Z,2.30
2019-05-18T21:49:27.566Z,3.47
2019-05-18T21:51:59.980Z,2.30
2019-05-18T21:54:32.385Z,2.20
2019-05-18T21:57:04.850Z,2.77
2019-05-18T21:59:37.244Z,2.20
2019-05-18T22:02:09.746Z,2.40
2019-05-18T22:04:42.179Z,2.50
2019-05-18T22:07:14.632Z,2.87
2019-05-18T22:09:47.036Z,5.27
2019-05-18T22:12:19.465Z,3.73
2019-05-18T22:14:51.936Z,6.50
2019-05-18T22:17:24.375Z,2.30
2019-05-18T22:19:56.774Z,2.57
2019-05-18T22:22:29.225Z,2.53
2019-05-18T22:25:01.646Z,2.20
2019-05-18T22:27:35.074Z,3.33
2019-05-18T22:30:07.476Z,5.87
2019-05-18T22:32:39.892Z,2.63
2019-05-18T22:35:12.293Z,3.20
2019-05-18T22:37:44.715Z,2.70
2019-05-18T22:40:17.112Z,2.73
2019-05-18T22:42:49.539Z,2.50
2019-05-18T22:45:21.974Z,2.60
2019-05-18T22:47:54.382Z,3.60
2019-05-18T22:50:26.905Z,3.30
2019-05-18T22:52:59.400Z,2.90
2019-05-18T22:55:31.814Z,3.10
2019-05-18T22:58:04.241Z,2.80
2019-05-18T23:00:36.633Z,2.93
2019-05-18T23:03:09.049Z,3.57
2019-05-18T23:05:41.451Z,3.10
2019-05-18T23:08:13.875Z,3.07
2019-05-18T23:10:46.277Z,6.63
2019-05-18T23:13:18.764Z,2.90
2019-05-18T23:15:51.208Z,2.70
2019-05-18T23:18:23.662Z,3.53
2019-05-18T23:20:56.055Z,2.63
2019-05-18T23:23:28.619Z,3.63
2019-05-18T23:26:01.076Z,2.63
2019-05-18T23:28:33.506Z,2.50
2019-05-18T23:31:05.910Z,2.93
2019-05-18T23:33:38.431Z,2.83
2019-05-18T23:36:12.058Z,2.70
2019-05-18T23:38:44.484Z,2.30
2019-05-18T23:41:16.954Z,3.90
2019-05-18T23:43:49.384Z,2.67
2019-05-18T23:46:21.818Z,1.90
2019-05-18T23:48:54.217Z,2.20
2019-05-18T23:51:26.640Z,5.40
2019-05-18T23:53:59.054Z,4.70
2019-05-18T23:56:31.474Z,2.50
2019-05-18T23:59:04.595Z,2.40
